createdAt,value
2019-04-26T00:00:35.264Z,1.20
2019-04-26T00:03:49.742Z,1.60
2019-04-26T00:06:57.340Z,1.63
2019-04-26T00:10:08.294Z,1.20
2019-04-26T00:13:32.085Z,1.43
2019-04-26T00:16:59.446Z,1.83
2019-04-26T00:20:08.251Z,1.73
2019-04-26T00:23:16.106Z,1.60
2019-04-26T00:26:23.250Z,1.73
2019-04-26T00:29:30.304Z,2.03
2019-04-26T00:32:37.287Z,1.43
2019-04-26T00:35:47.903Z,1.80
2019-04-26T00:38:53.228Z,1.70
2019-04-26T00:42:00.252Z,2.10
2019-04-26T00:45:07.507Z,1.47
2019-04-26T00:48:15.112Z,1.47
2019-04-26T00:51:23.399Z,1.60
2019-04-26T00:54:32.285Z,1.60
2019-04-26T00:57:39.292Z,1.60
2019-04-26T01:00:46.540Z,1.60
2019-04-26T01:03:53.443Z,1.23
2019-04-26T01:10:07.269Z,1.73
2019-04-26T01:13:15.340Z,1.50
2019-04-26T01:16:24.259Z,1.30
2019-04-26T01:19:31.575Z,1.57
2019-04-26T01:22:46.304Z,1.37
2019-04-26T01:26:03.881Z,1.50
2019-04-26T01:29:15.020Z,1.43
2019-04-26T01:32:22.129Z,1.33
2019-04-26T01:35:29.246Z,1.60
2019-04-26T01:38:36.565Z,1.50
2019-04-26T01:41:45.322Z,1.30
2019-04-26T01:45:04.661Z,1.20
2019-04-26T01:48:37.241Z,1.37
2019-04-26T01:51:51.723Z,1.23
2019-04-26T01:54:58.522Z,1.60
2019-04-26T01:58:06.366Z,1.40
2019-04-26T02:01:18.027Z,1.67
2019-04-26T02:04:27.783Z,1.43
2019-04-26T02:07:41.592Z,1.30
2019-04-26T02:10:48.631Z,1.03
2019-04-26T02:13:55.776Z,1.37
2019-04-26T02:17:03.310Z,0.93
2019-04-26T02:20:10.410Z,1.50
2019-04-26T02:26:35.726Z,1.20
2019-04-26T02:29:42.651Z,1.30
2019-04-26T02:32:49.670Z,1.23
2019-04-26T02:35:56.540Z,1.73
2019-04-26T02:39:06.365Z,1.40
2019-04-26T02:45:51.377Z,1.20
2019-04-26T02:49:09.934Z,1.20
2019-04-26T02:52:41.429Z,1.70
2019-04-26T02:59:32.368Z,1.67
2019-04-26T03:02:40.462Z,1.50
2019-04-26T03:05:47.621Z,1.20
2019-04-26T03:08:55.934Z,1.10
2019-04-26T03:12:19.935Z,1.17
2019-04-26T03:15:31.672Z,1.20
2019-04-26T03:18:48.240Z,0.97
2019-04-26T03:29:01.778Z,1.00
2019-04-26T03:32:17.278Z,1.00
2019-04-26T03:35:29.382Z,1.30
2019-04-26T03:39:00.939Z,1.30
2019-04-26T03:42:27.139Z,1.40
2019-04-26T03:46:09.525Z,1.00
2019-04-26T03:49:54.827Z,1.23
2019-04-26T03:53:12.916Z,1.27
2019-04-26T03:56:36.633Z,1.10
2019-04-26T03:59:48.277Z,1.27
2019-04-26T04:03:26.912Z,0.93
2019-04-26T04:06:52.444Z,1.10
2019-04-26T04:09:47.932Z,0.80
2019-04-26T04:13:18.565Z,1.00
2019-04-26T04:16:56.783Z,1.10
2019-04-26T04:20:12.249Z,0.70
2019-04-26T04:23:48.863Z,1.07
2019-04-26T04:27:25.535Z,0.90
2019-04-26T04:30:47.783Z,0.87
2019-04-26T04:34:17.424Z,0.70
2019-04-26T04:40:50.774Z,0.80
2019-04-26T04:44:33.279Z,0.70
2019-04-26T04:51:12.970Z,1.63
2019-04-26T04:55:07.159Z,1.27
2019-04-26T04:58:22.589Z,1.33
2019-04-26T05:01:53.594Z,1.63
2019-04-26T05:05:22.404Z,2.30
2019-04-26T05:09:02.889Z,2.57
2019-04-26T05:12:21.370Z,2.30
2019-04-26T05:16:05.008Z,2.33
2019-04-26T05:19:59.931Z,2.23
2019-04-26T05:23:20.383Z,2.07
2019-04-26T05:30:04.589Z,2.13
2019-04-26T05:33:22.526Z,2.17
2019-04-26T05:36:40.244Z,3.00
2019-04-26T05:40:07.247Z,2.60
2019-04-26T05:43:50.296Z,1.80
2019-04-26T05:50:24.393Z,2.20
2019-04-26T05:57:36.297Z,0.90
2019-04-26T06:01:32.529Z,1.30
2019-04-26T06:05:13.311Z,0.90
2019-04-26T06:09:16.756Z,1.20
2019-04-26T06:13:02.992Z,1.13
2019-04-26T06:16:36.103Z,1.03
2019-04-26T06:23:17.558Z,0.80
2019-04-26T06:27:13.564Z,1.07
2019-04-26T06:30:17.919Z,0.73
2019-04-26T06:33:32.606Z,0.87
2019-04-26T06:36:56.083Z,0.70
2019-04-26T06:40:20.061Z,0.97
2019-04-26T06:43:33.268Z,0.50
2019-04-26T06:47:19.239Z,0.80
2019-04-26T06:50:49.132Z,0.90
2019-04-26T06:54:27.375Z,1.13
2019-04-26T07:01:29.653Z,1.20
2019-04-26T07:05:09.583Z,1.13
2019-04-26T07:08:56.713Z,1.27
2019-04-26T07:12:24.441Z,1.20
2019-04-26T07:19:22.321Z,1.05
2019-04-26T07:23:01.032Z,1.00
2019-04-26T07:26:53.610Z,0.88
2019-04-26T07:30:17.433Z,0.82
2019-04-26T07:34:05.314Z,0.98
2019-04-26T07:41:18.356Z,0.88
2019-04-26T07:51:50.444Z,1.10
2019-04-26T07:55:34.626Z,1.10
2019-04-26T07:59:09.309Z,1.02
2019-04-26T08:02:54.021Z,1.10
2019-04-26T08:06:07.513Z,0.80
2019-04-26T08:09:26.423Z,1.00
2019-04-26T08:12:24.292Z,1.15
2019-04-26T08:15:46.947Z,1.37
2019-04-26T08:19:00.397Z,1.10
2019-04-26T08:25:17.763Z,0.90
2019-04-26T08:28:25.265Z,0.90
2019-04-26T08:31:32.622Z,1.00
2019-04-26T08:34:40.340Z,1.00
2019-04-26T08:37:49.037Z,1.27
2019-04-26T08:41:00.361Z,1.00
2019-04-26T08:44:12.949Z,1.13
2019-04-26T08:47:31.249Z,0.90
2019-04-26T08:50:42.271Z,0.95
2019-04-26T08:53:50.558Z,1.12
2019-04-26T08:57:05.505Z,0.93
2019-04-26T09:00:20.365Z,1.37
2019-04-26T09:06:39.510Z,1.20
2019-04-26T09:09:57.047Z,1.00
2019-04-26T09:12:57.285Z,1.00
2019-04-26T09:16:11.404Z,1.13
2019-04-26T09:19:18.274Z,1.10
2019-04-26T09:22:27.758Z,0.98
2019-04-26T09:25:39.702Z,1.00
2019-04-26T09:28:52.904Z,1.55
2019-04-26T09:35:24.369Z,1.00
2019-04-26T09:41:39.254Z,1.27
2019-04-26T09:44:50.481Z,1.07
2019-04-26T09:48:04.710Z,1.20
2019-04-26T09:51:12.313Z,1.25
2019-04-26T09:54:19.293Z,0.95
2019-04-26T09:57:26.305Z,1.10
2019-04-26T10:00:33.619Z,1.10
2019-04-26T10:03:42.250Z,1.00
2019-04-26T10:06:49.312Z,1.07
2019-04-26T10:10:00.757Z,1.00
2019-04-26T10:13:15.080Z,1.00
2019-04-26T10:16:21.425Z,1.00
2019-04-26T10:19:36.070Z,1.00
2019-04-26T10:22:43.183Z,1.00
2019-04-26T10:25:52.124Z,1.30
2019-04-26T10:28:59.102Z,0.90
2019-04-26T10:32:06.253Z,1.60
2019-04-26T10:35:13.320Z,1.20
2019-04-26T10:38:23.706Z,1.70
2019-04-26T10:41:29.311Z,1.27
2019-04-26T10:44:39.794Z,1.77
2019-04-26T10:47:45.300Z,1.60
2019-04-26T10:54:06.120Z,1.73
2019-04-26T10:57:13.852Z,1.85
2019-04-26T11:00:25.254Z,2.05
2019-04-26T11:03:34.940Z,1.42
2019-04-26T11:06:41.259Z,1.92
2019-04-26T11:09:48.250Z,1.50
2019-04-26T11:12:55.274Z,2.02
2019-04-26T11:16:07.116Z,2.30
2019-04-26T11:19:12.344Z,2.17
2019-04-26T11:22:29.039Z,1.80
2019-04-26T11:25:29.489Z,1.72
2019-04-26T11:28:36.590Z,1.73
2019-04-26T11:31:45.469Z,1.70
2019-04-26T11:34:54.543Z,2.07
2019-04-26T11:38:02.238Z,1.75
2019-04-26T11:41:09.403Z,2.20
2019-04-26T11:44:16.621Z,1.85
2019-04-26T11:47:23.596Z,2.30
2019-04-26T11:50:30.396Z,2.10
2019-04-26T11:56:45.507Z,1.80
2019-04-26T11:59:52.382Z,2.30
2019-04-26T12:02:59.283Z,2.40
2019-04-26T12:06:07.884Z,1.85
2019-04-26T12:09:19.444Z,2.10
2019-04-26T12:12:26.512Z,2.40
2019-04-26T12:15:39.126Z,2.70
2019-04-26T12:18:45.640Z,2.40
2019-04-26T12:21:55.172Z,2.33
2019-04-26T12:25:03.404Z,2.77
2019-04-26T12:28:10.982Z,2.70
2019-04-26T12:31:17.890Z,2.57
2019-04-26T12:34:25.260Z,2.57
2019-04-26T12:37:32.309Z,2.73
2019-04-26T12:47:09.337Z,2.70
2019-04-26T12:50:16.270Z,2.90
2019-04-26T12:53:26.637Z,3.03
2019-04-26T12:56:32.783Z,3.30
2019-04-26T12:59:44.382Z,2.93
2019-04-26T13:05:58.858Z,3.10
2019-04-26T13:09:16.616Z,3.17
2019-04-26T13:12:29.867Z,3.03
2019-04-26T13:15:51.810Z,2.83
2019-04-26T13:18:59.256Z,2.80
2019-04-26T13:22:08.520Z,3.13
2019-04-26T13:25:20.243Z,6.03
2019-04-26T13:28:24.029Z,3.17
2019-04-26T13:31:32.011Z,3.10
2019-04-26T13:34:39.487Z,3.47
2019-04-26T13:37:46.460Z,2.73
2019-04-26T13:40:54.120Z,2.80
2019-04-26T13:44:05.694Z,2.40
2019-04-26T13:47:16.271Z,3.00
2019-04-26T13:50:26.674Z,2.20
2019-04-26T13:53:33.555Z,3.03
2019-04-26T13:56:40.441Z,3.73
2019-04-26T13:59:47.782Z,2.47
2019-04-26T14:02:55.380Z,2.00
2019-04-26T14:09:11.978Z,3.00
2019-04-26T14:15:26.942Z,3.53
2019-04-26T14:18:39.092Z,3.60
2019-04-26T14:21:44.619Z,3.30
2019-04-26T14:24:58.531Z,3.23
2019-04-26T14:28:05.923Z,1.77
2019-04-26T14:31:16.602Z,1.73
2019-04-26T14:34:23.246Z,2.23
2019-04-26T14:37:30.423Z,1.87
2019-04-26T14:40:39.335Z,2.00
2019-04-26T14:43:46.942Z,1.70
2019-04-26T14:46:56.783Z,2.10
2019-04-26T14:50:13.384Z,2.00
2019-04-26T14:53:11.672Z,1.90
2019-04-26T14:56:29.440Z,1.40
2019-04-26T15:02:55.801Z,1.87
2019-04-26T15:06:16.912Z,2.00
2019-04-26T15:09:32.981Z,1.83
2019-04-26T15:12:45.724Z,1.80
2019-04-26T15:15:43.463Z,1.17
2019-04-26T15:18:52.469Z,1.13
2019-04-26T15:22:04.153Z,1.00
2019-04-26T15:25:11.978Z,0.80
2019-04-26T15:28:18.030Z,1.20
2019-04-26T15:31:27.109Z,1.37
2019-04-26T15:34:34.278Z,1.10
2019-04-26T15:37:42.276Z,0.83
2019-04-26T15:44:32.646Z,0.90
2019-04-26T15:47:57.922Z,1.00
2019-04-26T15:51:04.889Z,2.37
2019-04-26T15:54:11.739Z,8.07
2019-04-26T15:57:19.353Z,3.47
2019-04-26T16:00:28.408Z,4.77
2019-04-26T16:03:40.526Z,2.07
2019-04-26T16:06:45.616Z,4.20
2019-04-26T16:09:55.985Z,3.80
2019-04-26T16:13:16.167Z,1.10
2019-04-26T16:16:12.503Z,1.10
2019-04-26T16:19:19.135Z,0.90
2019-04-26T16:22:30.084Z,1.20
2019-04-26T16:25:38.407Z,3.13
2019-04-26T16:28:45.927Z,2.33
2019-04-26T16:32:12.507Z,2.53
2019-04-26T16:35:25.605Z,2.23
2019-04-26T16:38:37.829Z,2.40
2019-04-26T16:41:45.247Z,2.20
2019-04-26T16:44:53.109Z,1.97
2019-04-26T16:48:01.882Z,2.53
2019-04-26T16:51:10.037Z,2.30
2019-04-26T16:54:22.076Z,4.67
2019-04-26T16:57:25.787Z,3.70
2019-04-26T17:00:50.205Z,3.80
2019-04-26T17:03:45.149Z,4.20
2019-04-26T17:09:59.366Z,3.20
2019-04-26T17:13:05.387Z,2.87
2019-04-26T17:19:20.448Z,3.40
2019-04-26T17:25:55.193Z,1.17
2019-04-26T17:29:02.414Z,0.90
2019-04-26T17:32:13.941Z,0.80
2019-04-26T17:35:18.973Z,1.10
2019-04-26T17:38:27.564Z,1.20
2019-04-26T17:41:35.053Z,1.97
2019-04-26T17:44:42.045Z,1.40
2019-04-26T17:47:50.677Z,4.90
2019-04-26T17:50:58.015Z,1.80
2019-04-26T17:54:26.509Z,1.07
2019-04-26T17:57:16.263Z,1.07
2019-04-26T18:00:26.877Z,1.50
2019-04-26T18:03:35.393Z,1.70
2019-04-26T18:06:45.368Z,2.17
2019-04-26T18:09:52.576Z,1.90
2019-04-26T18:13:01.792Z,3.43
2019-04-26T18:16:10.353Z,2.70
2019-04-26T18:19:31.903Z,2.90
2019-04-26T18:22:47.127Z,1.93
2019-04-26T18:25:54.259Z,2.73
2019-04-26T18:29:01.309Z,3.77
2019-04-26T18:32:09.561Z,3.10
2019-04-26T18:35:16.980Z,2.40
2019-04-26T18:38:24.806Z,2.20
2019-04-26T18:41:33.965Z,2.53
2019-04-26T18:44:47.386Z,2.33
2019-04-26T18:47:50.247Z,4.90
2019-04-26T18:50:58.477Z,9.80
2019-04-26T18:54:23.403Z,2.10
2019-04-26T18:57:30.594Z,1.30
2019-04-26T19:00:39.267Z,1.30
2019-04-26T19:03:46.268Z,1.33
2019-04-26T19:06:55.669Z,1.10
2019-04-26T19:10:05.418Z,1.23
2019-04-26T19:13:36.555Z,1.30
2019-04-26T19:16:50.256Z,2.17
2019-04-26T19:20:03.698Z,1.20
2019-04-26T19:23:13.074Z,1.33
2019-04-26T19:26:31.750Z,3.83
2019-04-26T19:29:33.619Z,3.17
2019-04-26T19:32:39.581Z,3.20
2019-04-26T19:35:47.539Z,1.43
2019-04-26T19:38:57.995Z,1.13
2019-04-26T19:42:06.240Z,2.80
2019-04-26T19:45:19.531Z,2.50
2019-04-26T19:48:31.428Z,1.83
2019-04-26T19:52:03.564Z,1.70
2019-04-26T19:58:26.574Z,1.70
2019-04-26T20:01:33.707Z,2.03
2019-04-26T20:04:44.340Z,1.60
2019-04-26T20:11:01.319Z,1.73
2019-04-26T20:14:09.298Z,1.90
2019-04-26T20:17:19.746Z,1.50
2019-04-26T20:20:27.790Z,1.40
2019-04-26T20:23:38.385Z,1.73
2019-04-26T20:26:44.953Z,2.03
2019-04-26T20:29:52.302Z,1.77
2019-04-26T20:33:01.777Z,1.70
2019-04-26T20:36:09.754Z,1.70
2019-04-26T20:39:20.886Z,2.30
2019-04-26T20:42:26.298Z,1.93
2019-04-26T20:45:41.377Z,2.43
2019-04-26T20:48:42.678Z,2.03
2019-04-26T20:51:51.909Z,3.33
2019-04-26T20:55:00.528Z,4.20
2019-04-26T20:58:09.425Z,3.37
2019-04-26T21:01:17.444Z,2.87
2019-04-26T21:07:32.590Z,2.93
2019-04-26T21:10:41.581Z,2.50
2019-04-26T21:13:49.732Z,2.60
2019-04-26T21:20:23.316Z,2.77
2019-04-26T21:26:58.308Z,3.67
2019-04-26T21:33:38.926Z,3.50
2019-04-26T21:36:59.688Z,2.90
2019-04-26T21:40:23.169Z,3.33
2019-04-26T21:43:29.446Z,2.90
2019-04-26T21:46:38.578Z,3.20
2019-04-26T21:49:45.629Z,3.77
2019-04-26T21:52:54.113Z,3.13
2019-04-26T21:56:02.934Z,3.07
2019-04-26T21:59:10.394Z,2.97
2019-04-26T22:02:17.799Z,3.00
2019-04-26T22:05:26.571Z,3.13
2019-04-26T22:08:50.477Z,3.37
2019-04-26T22:11:58.283Z,2.97
2019-04-26T22:15:13.660Z,3.70
2019-04-26T22:18:41.294Z,3.10
2019-04-26T22:21:59.447Z,3.30
2019-04-26T22:25:09.354Z,3.40
2019-04-26T22:28:16.357Z,3.00
2019-04-26T22:34:30.681Z,3.47
2019-04-26T22:37:37.475Z,3.40
2019-04-26T22:43:55.558Z,3.33
2019-04-26T22:47:15.733Z,3.90
2019-04-26T22:50:25.125Z,3.43
2019-04-26T22:53:32.863Z,4.17
2019-04-26T22:56:39.780Z,3.60
2019-04-26T22:59:50.119Z,3.77
2019-04-26T23:02:58.087Z,3.73
2019-04-26T23:06:07.877Z,4.27
2019-04-26T23:09:16.966Z,4.50
2019-04-26T23:12:27.971Z,4.43
2019-04-26T23:15:37.366Z,3.97
2019-04-26T23:19:03.736Z,3.90
2019-04-26T23:25:21.300Z,4.40
2019-04-26T23:28:33.950Z,4.07
2019-04-26T23:31:41.653Z,4.03
2019-04-26T23:34:46.590Z,4.60
2019-04-26T23:37:56.562Z,4.10
2019-04-26T23:41:07.084Z,4.47
2019-04-26T23:44:10.778Z,4.27
2019-04-26T23:47:22.401Z,4.93
2019-04-26T23:50:29.400Z,5.50
2019-04-26T23:53:36.444Z,6.10
2019-04-26T23:59:56.451Z,6.43
